sensor_id;sensor_type;location;lat;lon;timestamp;temperature;humidity
40085;DHT22;25786;51.504;7.344;2023-07-22T00:02:00;14.70;82.20
40085;DHT22;25786;51.504;7.344;2023-07-22T00:04:26;14.70;82.50
40085;DHT22;25786;51.504;7.344;2023-07-22T00:06:52;14.70;82.90
40085;DHT22;25786;51.504;7.344;2023-07-22T00:09:17;14.70;82.50
40085;DHT22;25786;51.504;7.344;2023-07-22T00:11:43;14.70;82.50
40085;DHT22;25786;51.504;7.344;2023-07-22T00:14:08;14.70;83.00
40085;DHT22;25786;51.504;7.344;2023-07-22T00:16:34;14.80;82.30
40085;DHT22;25786;51.504;7.344;2023-07-22T00:19:00;14.80;82.70
40085;DHT22;25786;51.504;7.344;2023-07-22T00:21:26;14.80;82.10
40085;DHT22;25786;51.504;7.344;2023-07-22T00:23:51;14.70;82.40
40085;DHT22;25786;51.504;7.344;2023-07-22T00:26:16;14.80;81.50
40085;DHT22;25786;51.504;7.344;2023-07-22T00:28:42;14.70;82.40
40085;DHT22;25786;51.504;7.344;2023-07-22T00:31:08;14.70;82.80
40085;DHT22;25786;51.504;7.344;2023-07-22T00:33:34;14.70;82.80
40085;DHT22;25786;51.504;7.344;2023-07-22T00:35:59;14.70;81.90
40085;DHT22;25786;51.504;7.344;2023-07-22T00:38:25;14.70;82.60
40085;DHT22;25786;51.504;7.344;2023-07-22T00:40:50;14.60;82.40
40085;DHT22;25786;51.504;7.344;2023-07-22T00:43:16;14.70;82.20
40085;DHT22;25786;51.504;7.344;2023-07-22T00:45:41;14.80;81.90
40085;DHT22;25786;51.504;7.344;2023-07-22T00:48:07;14.80;80.70
40085;DHT22;25786;51.504;7.344;2023-07-22T00:50:33;14.80;80.90
40085;DHT22;25786;51.504;7.344;2023-07-22T00:52:58;14.80;80.90
40085;DHT22;25786;51.504;7.344;2023-07-22T00:55:24;14.80;79.50
40085;DHT22;25786;51.504;7.344;2023-07-22T00:57:50;14.80;78.60
40085;DHT22;25786;51.504;7.344;2023-07-22T01:00:15;14.80;78.50
40085;DHT22;25786;51.504;7.344;2023-07-22T01:02:41;14.80;78.60
40085;DHT22;25786;51.504;7.344;2023-07-22T01:05:08;14.90;79.40
40085;DHT22;25786;51.504;7.344;2023-07-22T01:07:35;14.80;79.80
40085;DHT22;25786;51.504;7.344;2023-07-22T01:10:01;14.90;79.40
40085;DHT22;25786;51.504;7.344;2023-07-22T01:12:26;14.90;79.20
40085;DHT22;25786;51.504;7.344;2023-07-22T01:14:52;14.90;79.20
40085;DHT22;25786;51.504;7.344;2023-07-22T01:17:17;14.80;79.00
40085;DHT22;25786;51.504;7.344;2023-07-22T01:19:44;14.80;79.40
40085;DHT22;25786;51.504;7.344;2023-07-22T01:22:09;14.80;79.50
40085;DHT22;25786;51.504;7.344;2023-07-22T01:24:36;14.80;80.00
40085;DHT22;25786;51.504;7.344;2023-07-22T01:27:02;14.80;79.50
40085;DHT22;25786;51.504;7.344;2023-07-22T01:29:28;14.70;78.20
40085;DHT22;25786;51.504;7.344;2023-07-22T01:31:54;14.70;77.90
40085;DHT22;25786;51.504;7.344;2023-07-22T01:34:20;14.60;77.40
40085;DHT22;25786;51.504;7.344;2023-07-22T01:36:46;14.60;77.10
40085;DHT22;25786;51.504;7.344;2023-07-22T01:39:15;14.60;78.30
40085;DHT22;25786;51.504;7.344;2023-07-22T01:41:41;14.60;78.90
40085;DHT22;25786;51.504;7.344;2023-07-22T01:44:07;14.60;79.00
40085;DHT22;25786;51.504;7.344;2023-07-22T01:46:36;14.60;77.50
40085;DHT22;25786;51.504;7.344;2023-07-22T01:49:03;14.70;78.90
40085;DHT22;25786;51.504;7.344;2023-07-22T01:51:29;14.70;77.70
40085;DHT22;25786;51.504;7.344;2023-07-22T01:53:54;14.60;77.20
40085;DHT22;25786;51.504;7.344;2023-07-22T01:56:22;14.60;77.50
40085;DHT22;25786;51.504;7.344;2023-07-22T01:58:47;14.60;77.10
40085;DHT22;25786;51.504;7.344;2023-07-22T02:01:13;14.70;77.50
40085;DHT22;25786;51.504;7.344;2023-07-22T02:03:40;14.70;77.30
40085;DHT22;25786;51.504;7.344;2023-07-22T02:06:06;14.80;76.70
40085;DHT22;25786;51.504;7.344;2023-07-22T02:08:31;14.80;76.50
40085;DHT22;25786;51.504;7.344;2023-07-22T02:11:04;14.80;76.70
40085;DHT22;25786;51.504;7.344;2023-07-22T02:13:30;14.80;76.90
40085;DHT22;25786;51.504;7.344;2023-07-22T02:15:55;14.80;76.00
40085;DHT22;25786;51.504;7.344;2023-07-22T02:18:21;14.80;75.90
40085;DHT22;25786;51.504;7.344;2023-07-22T02:20:46;14.70;76.10
40085;DHT22;25786;51.504;7.344;2023-07-22T02:23:12;14.60;75.70
40085;DHT22;25786;51.504;7.344;2023-07-22T02:25:37;14.70;76.60
40085;DHT22;25786;51.504;7.344;2023-07-22T02:28:03;14.70;76.20
40085;DHT22;25786;51.504;7.344;2023-07-22T02:30:28;14.70;76.10
40085;DHT22;25786;51.504;7.344;2023-07-22T02:32:54;14.70;76.70
40085;DHT22;25786;51.504;7.344;2023-07-22T02:35:19;14.80;76.20
40085;DHT22;25786;51.504;7.344;2023-07-22T02:37:45;14.80;75.70
40085;DHT22;25786;51.504;7.344;2023-07-22T02:40:10;14.70;76.20
40085;DHT22;25786;51.504;7.344;2023-07-22T02:42:36;14.70;76.30
40085;DHT22;25786;51.504;7.344;2023-07-22T02:45:02;14.80;75.90
40085;DHT22;25786;51.504;7.344;2023-07-22T02:47:29;14.80;75.50
40085;DHT22;25786;51.504;7.344;2023-07-22T02:49:54;14.80;76.10
40085;DHT22;25786;51.504;7.344;2023-07-22T02:52:20;14.80;75.70
40085;DHT22;25786;51.504;7.344;2023-07-22T02:55:03;14.70;76.80
40085;DHT22;25786;51.504;7.344;2023-07-22T02:57:29;14.70;76.70
40085;DHT22;25786;51.504;7.344;2023-07-22T02:59:54;14.70;76.70
40085;DHT22;25786;51.504;7.344;2023-07-22T03:02:19;14.70;76.20
40085;DHT22;25786;51.504;7.344;2023-07-22T03:04:45;14.80;75.70
40085;DHT22;25786;51.504;7.344;2023-07-22T03:07:10;14.80;76.00
40085;DHT22;25786;51.504;7.344;2023-07-22T03:09:36;14.80;75.80
40085;DHT22;25786;51.504;7.344;2023-07-22T03:12:01;14.80;76.10
40085;DHT22;25786;51.504;7.344;2023-07-22T03:14:27;14.90;75.80
40085;DHT22;25786;51.504;7.344;2023-07-22T03:16:52;14.80;75.80
40085;DHT22;25786;51.504;7.344;2023-07-22T03:19:18;14.90;75.90
40085;DHT22;25786;51.504;7.344;2023-07-22T03:21:44;15.00;75.20
40085;DHT22;25786;51.504;7.344;2023-07-22T03:24:09;15.00;75.60
40085;DHT22;25786;51.504;7.344;2023-07-22T03:26:35;15.00;75.70
40085;DHT22;25786;51.504;7.344;2023-07-22T03:29:01;15.00;75.50
40085;DHT22;25786;51.504;7.344;2023-07-22T03:31:26;15.00;75.00
40085;DHT22;25786;51.504;7.344;2023-07-22T03:33:52;15.00;75.40
40085;DHT22;25786;51.504;7.344;2023-07-22T03:36:17;15.00;75.70
40085;DHT22;25786;51.504;7.344;2023-07-22T03:38:43;15.00;75.70
40085;DHT22;25786;51.504;7.344;2023-07-22T03:41:08;15.00;75.70
40085;DHT22;25786;51.504;7.344;2023-07-22T03:43:34;15.00;75.70
40085;DHT22;25786;51.504;7.344;2023-07-22T03:45:59;15.00;75.70
40085;DHT22;25786;51.504;7.344;2023-07-22T03:48:25;15.10;75.60
40085;DHT22;25786;51.504;7.344;2023-07-22T03:50:50;15.10;75.80
40085;DHT22;25786;51.504;7.344;2023-07-22T03:53:16;15.10;75.50
40085;DHT22;25786;51.504;7.344;2023-07-22T03:55:41;15.10;75.50
40085;DHT22;25786;51.504;7.344;2023-07-22T03:58:06;15.20;75.40
40085;DHT22;25786;51.504;7.344;2023-07-22T04:00:32;15.20;74.70
40085;DHT22;25786;51.504;7.344;2023-07-22T04:02:57;15.20;74.80
40085;DHT22;25786;51.504;7.344;2023-07-22T04:05:23;15.20;75.20
40085;DHT22;25786;51.504;7.344;2023-07-22T04:07:51;15.20;75.40
40085;DHT22;25786;51.504;7.344;2023-07-22T04:10:17;15.20;74.70
40085;DHT22;25786;51.504;7.344;2023-07-22T04:12:42;15.20;74.70
40085;DHT22;25786;51.504;7.344;2023-07-22T04:15:08;15.20;75.00
40085;DHT22;25786;51.504;7.344;2023-07-22T04:17:33;15.20;75.10
40085;DHT22;25786;51.504;7.344;2023-07-22T04:19:59;15.30;74.90
40085;DHT22;25786;51.504;7.344;2023-07-22T04:22:24;15.30;74.30
40085;DHT22;25786;51.504;7.344;2023-07-22T04:24:50;15.30;75.10
40085;DHT22;25786;51.504;7.344;2023-07-22T04:27:15;15.30;74.70
40085;DHT22;25786;51.504;7.344;2023-07-22T04:29:41;15.40;74.00
40085;DHT22;25786;51.504;7.344;2023-07-22T04:32:07;15.40;74.30
40085;DHT22;25786;51.504;7.344;2023-07-22T04:34:33;15.40;74.30
40085;DHT22;25786;51.504;7.344;2023-07-22T04:36:59;15.50;74.00
40085;DHT22;25786;51.504;7.344;2023-07-22T04:39:25;15.50;74.00
40085;DHT22;25786;51.504;7.344;2023-07-22T04:41:51;15.60;73.40
40085;DHT22;25786;51.504;7.344;2023-07-22T04:44:17;15.50;74.50
40085;DHT22;25786;51.504;7.344;2023-07-22T04:46:42;15.50;74.10
40085;DHT22;25786;51.504;7.344;2023-07-22T04:49:08;15.50;74.90
40085;DHT22;25786;51.504;7.344;2023-07-22T04:51:34;15.60;75.40
40085;DHT22;25786;51.504;7.344;2023-07-22T04:53:59;15.60;75.40
40085;DHT22;25786;51.504;7.344;2023-07-22T04:56:24;15.60;75.30
40085;DHT22;25786;51.504;7.344;2023-07-22T04:58:50;15.70;74.20
40085;DHT22;25786;51.504;7.344;2023-07-22T05:01:15;15.60;74.10
40085;DHT22;25786;51.504;7.344;2023-07-22T05:03:41;15.60;73.70
40085;DHT22;25786;51.504;7.344;2023-07-22T05:06:06;15.70;73.60
40085;DHT22;25786;51.504;7.344;2023-07-22T05:08:33;15.80;72.60
40085;DHT22;25786;51.504;7.344;2023-07-22T05:10:59;15.70;71.90
40085;DHT22;25786;51.504;7.344;2023-07-22T05:13:25;15.80;72.50
40085;DHT22;25786;51.504;7.344;2023-07-22T05:15:50;15.80;72.50
40085;DHT22;25786;51.504;7.344;2023-07-22T05:18:15;15.90;71.80
40085;DHT22;25786;51.504;7.344;2023-07-22T05:20:41;16.00;71.40
40085;DHT22;25786;51.504;7.344;2023-07-22T05:23:07;16.00;71.00
40085;DHT22;25786;51.504;7.344;2023-07-22T05:25:32;16.00;71.20
40085;DHT22;25786;51.504;7.344;2023-07-22T05:27:58;16.10;71.80
40085;DHT22;25786;51.504;7.344;2023-07-22T05:30:23;16.10;71.50
40085;DHT22;25786;51.504;7.344;2023-07-22T05:32:51;16.10;70.90
40085;DHT22;25786;51.504;7.344;2023-07-22T05:35:17;16.20;70.70
40085;DHT22;25786;51.504;7.344;2023-07-22T05:37:42;16.10;71.60
40085;DHT22;25786;51.504;7.344;2023-07-22T05:40:08;16.20;70.60
40085;DHT22;25786;51.504;7.344;2023-07-22T05:42:34;16.20;70.90
40085;DHT22;25786;51.504;7.344;2023-07-22T05:44:59;16.10;70.70
40085;DHT22;25786;51.504;7.344;2023-07-22T05:47:25;16.10;70.50
40085;DHT22;25786;51.504;7.344;2023-07-22T05:49:50;16.10;70.30
40085;DHT22;25786;51.504;7.344;2023-07-22T05:52:16;16.20;69.70
40085;DHT22;25786;51.504;7.344;2023-07-22T05:54:42;16.30;70.00
40085;DHT22;25786;51.504;7.344;2023-07-22T05:57:07;16.30;69.60
40085;DHT22;25786;51.504;7.344;2023-07-22T05:59:33;16.50;68.90
40085;DHT22;25786;51.504;7.344;2023-07-22T06:02:01;16.50;69.30
40085;DHT22;25786;51.504;7.344;2023-07-22T06:04:28;16.50;69.50
40085;DHT22;25786;51.504;7.344;2023-07-22T06:06:53;16.50;68.80
40085;DHT22;25786;51.504;7.344;2023-07-22T06:09:19;16.50;68.90
40085;DHT22;25786;51.504;7.344;2023-07-22T06:11:45;16.60;68.30
40085;DHT22;25786;51.504;7.344;2023-07-22T06:14:10;16.60;68.30
40085;DHT22;25786;51.504;7.344;2023-07-22T06:16:36;16.60;68.00
40085;DHT22;25786;51.504;7.344;2023-07-22T06:19:02;16.70;67.40
40085;DHT22;25786;51.504;7.344;2023-07-22T06:21:28;16.70;67.50
40085;DHT22;25786;51.504;7.344;2023-07-22T06:23:53;16.70;67.50
40085;DHT22;25786;51.504;7.344;2023-07-22T06:26:18;16.90;67.20
40085;DHT22;25786;51.504;7.344;2023-07-22T06:28:44;16.80;67.60
40085;DHT22;25786;51.504;7.344;2023-07-22T06:31:09;17.00;67.70
40085;DHT22;25786;51.504;7.344;2023-07-22T06:33:35;17.00;67.10
40085;DHT22;25786;51.504;7.344;2023-07-22T06:36:01;17.00;67.50
40085;DHT22;25786;51.504;7.344;2023-07-22T06:38:26;17.00;67.60
40085;DHT22;25786;51.504;7.344;2023-07-22T06:40:52;17.10;67.70
40085;DHT22;25786;51.504;7.344;2023-07-22T06:43:18;17.20;67.20
40085;DHT22;25786;51.504;7.344;2023-07-22T06:45:44;17.10;67.10
40085;DHT22;25786;51.504;7.344;2023-07-22T06:48:09;17.10;66.90
40085;DHT22;25786;51.504;7.344;2023-07-22T06:50:34;17.20;66.90
40085;DHT22;25786;51.504;7.344;2023-07-22T06:53:00;17.20;67.40
40085;DHT22;25786;51.504;7.344;2023-07-22T06:55:25;17.30;67.40
40085;DHT22;25786;51.504;7.344;2023-07-22T06:57:51;17.40;66.30
40085;DHT22;25786;51.504;7.344;2023-07-22T07:00:16;17.40;66.30
40085;DHT22;25786;51.504;7.344;2023-07-22T07:02:42;17.40;67.00
40085;DHT22;25786;51.504;7.344;2023-07-22T07:05:07;17.50;66.30
40085;DHT22;25786;51.504;7.344;2023-07-22T07:07:33;17.60;66.60
40085;DHT22;25786;51.504;7.344;2023-07-22T07:09:58;17.60;66.50
40085;DHT22;25786;51.504;7.344;2023-07-22T07:12:24;17.80;65.90
40085;DHT22;25786;51.504;7.344;2023-07-22T07:14:52;17.90;64.80
40085;DHT22;25786;51.504;7.344;2023-07-22T07:17:18;17.90;65.20
40085;DHT22;25786;51.504;7.344;2023-07-22T07:19:44;18.00;65.40
40085;DHT22;25786;51.504;7.344;2023-07-22T07:22:10;17.90;64.90
40085;DHT22;25786;51.504;7.344;2023-07-22T07:24:35;17.90;64.60
40085;DHT22;25786;51.504;7.344;2023-07-22T07:27:01;18.00;64.90
40085;DHT22;25786;51.504;7.344;2023-07-22T07:29:27;18.00;64.00
40085;DHT22;25786;51.504;7.344;2023-07-22T07:31:52;18.10;64.00
40085;DHT22;25786;51.504;7.344;2023-07-22T07:34:18;18.10;63.40
40085;DHT22;25786;51.504;7.344;2023-07-22T07:36:43;18.20;63.50
40085;DHT22;25786;51.504;7.344;2023-07-22T07:39:10;18.40;62.90
40085;DHT22;25786;51.504;7.344;2023-07-22T07:41:36;18.40;63.60
40085;DHT22;25786;51.504;7.344;2023-07-22T07:44:03;18.50;63.50
40085;DHT22;25786;51.504;7.344;2023-07-22T07:46:29;18.60;62.30
40085;DHT22;25786;51.504;7.344;2023-07-22T07:48:55;18.60;61.80
40085;DHT22;25786;51.504;7.344;2023-07-22T07:51:22;18.60;61.50
40085;DHT22;25786;51.504;7.344;2023-07-22T07:53:47;18.60;61.50
40085;DHT22;25786;51.504;7.344;2023-07-22T07:56:13;18.70;61.50
40085;DHT22;25786;51.504;7.344;2023-07-22T07:58:39;18.80;61.00
40085;DHT22;25786;51.504;7.344;2023-07-22T08:01:05;18.80;60.90
40085;DHT22;25786;51.504;7.344;2023-07-22T08:03:31;18.90;61.20
40085;DHT22;25786;51.504;7.344;2023-07-22T08:05:56;18.90;60.70
40085;DHT22;25786;51.504;7.344;2023-07-22T08:08:22;18.90;60.60
40085;DHT22;25786;51.504;7.344;2023-07-22T08:10:47;18.90;60.10
40085;DHT22;25786;51.504;7.344;2023-07-22T08:13:13;19.00;60.00
40085;DHT22;25786;51.504;7.344;2023-07-22T08:15:39;19.00;60.30
40085;DHT22;25786;51.504;7.344;2023-07-22T08:18:07;19.00;60.90
40085;DHT22;25786;51.504;7.344;2023-07-22T08:20:32;19.20;61.30
40085;DHT22;25786;51.504;7.344;2023-07-22T08:22:58;19.40;59.10
40085;DHT22;25786;51.504;7.344;2023-07-22T08:25:23;19.50;59.50
40085;DHT22;25786;51.504;7.344;2023-07-22T08:27:48;19.50;58.60
40085;DHT22;25786;51.504;7.344;2023-07-22T08:30:14;19.60;57.90
40085;DHT22;25786;51.504;7.344;2023-07-22T08:32:39;19.60;58.30
40085;DHT22;25786;51.504;7.344;2023-07-22T08:35:05;19.60;57.90
40085;DHT22;25786;51.504;7.344;2023-07-22T08:37:32;19.60;56.90
40085;DHT22;25786;51.504;7.344;2023-07-22T08:39:58;19.60;57.20
40085;DHT22;25786;51.504;7.344;2023-07-22T08:42:23;19.60;57.80
40085;DHT22;25786;51.504;7.344;2023-07-22T08:44:49;19.60;57.70
40085;DHT22;25786;51.504;7.344;2023-07-22T08:47:17;19.60;57.30
40085;DHT22;25786;51.504;7.344;2023-07-22T08:49:46;19.70;57.40
40085;DHT22;25786;51.504;7.344;2023-07-22T08:52:15;19.80;57.10
40085;DHT22;25786;51.504;7.344;2023-07-22T08:54:41;19.70;57.30
40085;DHT22;25786;51.504;7.344;2023-07-22T08:57:07;19.80;56.00
40085;DHT22;25786;51.504;7.344;2023-07-22T08:59:33;19.90;57.30
40085;DHT22;25786;51.504;7.344;2023-07-22T09:01:59;20.10;55.70
40085;DHT22;25786;51.504;7.344;2023-07-22T09:04:24;20.20;55.90
40085;DHT22;25786;51.504;7.344;2023-07-22T09:06:50;20.10;56.60
40085;DHT22;25786;51.504;7.344;2023-07-22T09:09:16;20.10;55.80
40085;DHT22;25786;51.504;7.344;2023-07-22T09:11:41;20.20;56.30
40085;DHT22;25786;51.504;7.344;2023-07-22T09:14:07;20.30;55.70
40085;DHT22;25786;51.504;7.344;2023-07-22T09:16:33;20.20;55.00
40085;DHT22;25786;51.504;7.344;2023-07-22T09:18:59;20.20;55.90
40085;DHT22;25786;51.504;7.344;2023-07-22T09:21:24;20.20;55.80
40085;DHT22;25786;51.504;7.344;2023-07-22T09:23:50;20.10;55.10
40085;DHT22;25786;51.504;7.344;2023-07-22T09:26:17;20.20;55.80
40085;DHT22;25786;51.504;7.344;2023-07-22T09:31:18;20.30;54.10
40085;DHT22;25786;51.504;7.344;2023-07-22T09:33:43;20.20;55.60
40085;DHT22;25786;51.504;7.344;2023-07-22T09:36:09;20.20;55.60
40085;DHT22;25786;51.504;7.344;2023-07-22T09:38:35;20.30;54.90
40085;DHT22;25786;51.504;7.344;2023-07-22T09:41:00;20.40;55.60
40085;DHT22;25786;51.504;7.344;2023-07-22T09:43:26;20.40;55.60
40085;DHT22;25786;51.504;7.344;2023-07-22T09:45:52;20.40;56.00
40085;DHT22;25786;51.504;7.344;2023-07-22T09:48:20;20.50;56.30
40085;DHT22;25786;51.504;7.344;2023-07-22T09:50:46;20.50;55.10
40085;DHT22;25786;51.504;7.344;2023-07-22T09:53:14;20.50;55.40
40085;DHT22;25786;51.504;7.344;2023-07-22T09:55:40;20.50;55.50
40085;DHT22;25786;51.504;7.344;2023-07-22T09:58:06;20.50;54.30
40085;DHT22;25786;51.504;7.344;2023-07-22T10:00:34;20.60;54.00
40085;DHT22;25786;51.504;7.344;2023-07-22T10:03:00;20.70;53.80
40085;DHT22;25786;51.504;7.344;2023-07-22T10:05:26;20.80;52.80
40085;DHT22;25786;51.504;7.344;2023-07-22T10:07:53;20.80;53.10
40085;DHT22;25786;51.504;7.344;2023-07-22T10:10:20;21.00;53.80
40085;DHT22;25786;51.504;7.344;2023-07-22T10:12:46;21.20;52.00
40085;DHT22;25786;51.504;7.344;2023-07-22T10:15:12;21.50;52.20
40085;DHT22;25786;51.504;7.344;2023-07-22T10:17:38;21.50;51.20
40085;DHT22;25786;51.504;7.344;2023-07-22T10:20:04;21.60;49.20
40085;DHT22;25786;51.504;7.344;2023-07-22T10:22:34;21.60;50.40
40085;DHT22;25786;51.504;7.344;2023-07-22T10:25:00;21.60;51.60
40085;DHT22;25786;51.504;7.344;2023-07-22T10:27:26;21.70;52.30
40085;DHT22;25786;51.504;7.344;2023-07-22T10:29:53;21.60;50.60
40085;DHT22;25786;51.504;7.344;2023-07-22T10:32:19;21.60;50.50
40085;DHT22;25786;51.504;7.344;2023-07-22T10:34:44;21.70;51.00
40085;DHT22;25786;51.504;7.344;2023-07-22T10:37:10;21.70;50.20
40085;DHT22;25786;51.504;7.344;2023-07-22T10:39:36;21.80;51.20
40085;DHT22;25786;51.504;7.344;2023-07-22T10:42:05;21.80;50.50
40085;DHT22;25786;51.504;7.344;2023-07-22T10:44:31;21.80;50.90
40085;DHT22;25786;51.504;7.344;2023-07-22T10:46:58;21.80;50.10
40085;DHT22;25786;51.504;7.344;2023-07-22T10:49:24;21.90;51.20
40085;DHT22;25786;51.504;7.344;2023-07-22T10:51:50;21.90;50.30
40085;DHT22;25786;51.504;7.344;2023-07-22T10:54:58;22.00;50.50
40085;DHT22;25786;51.504;7.344;2023-07-22T10:57:22;21.90;50.20
40085;DHT22;25786;51.504;7.344;2023-07-22T10:59:51;21.80;50.40
40085;DHT22;25786;51.504;7.344;2023-07-22T11:02:27;21.60;50.30
40085;DHT22;25786;51.504;7.344;2023-07-22T11:04:52;21.50;50.80
40085;DHT22;25786;51.504;7.344;2023-07-22T11:07:31;21.40;51.10
40085;DHT22;25786;51.504;7.344;2023-07-22T11:09:57;21.40;52.30
40085;DHT22;25786;51.504;7.344;2023-07-22T11:12:24;21.60;51.60
40085;DHT22;25786;51.504;7.344;2023-07-22T11:14:50;21.70;52.60
40085;DHT22;25786;51.504;7.344;2023-07-22T11:17:17;21.90;50.50
40085;DHT22;25786;51.504;7.344;2023-07-22T11:19:43;22.10;51.50
40085;DHT22;25786;51.504;7.344;2023-07-22T11:22:08;22.10;50.20
40085;DHT22;25786;51.504;7.344;2023-07-22T11:24:34;22.10;49.20
40085;DHT22;25786;51.504;7.344;2023-07-22T11:27:02;22.20;50.60
40085;DHT22;25786;51.504;7.344;2023-07-22T11:29:28;22.40;49.80
40085;DHT22;25786;51.504;7.344;2023-07-22T11:31:53;22.40;48.70
40085;DHT22;25786;51.504;7.344;2023-07-22T11:34:20;22.50;47.60
40085;DHT22;25786;51.504;7.344;2023-07-22T11:36:46;22.40;48.10
40085;DHT22;25786;51.504;7.344;2023-07-22T11:39:13;22.40;50.60
40085;DHT22;25786;51.504;7.344;2023-07-22T11:41:39;22.50;48.10
40085;DHT22;25786;51.504;7.344;2023-07-22T11:44:07;22.40;47.30
40085;DHT22;25786;51.504;7.344;2023-07-22T11:49:32;22.40;46.50
40085;DHT22;25786;51.504;7.344;2023-07-22T11:52:02;22.40;47.60
40085;DHT22;25786;51.504;7.344;2023-07-22T11:54:28;22.40;47.20
40085;DHT22;25786;51.504;7.344;2023-07-22T11:56:54;22.60;46.50
40085;DHT22;25786;51.504;7.344;2023-07-22T12:02:22;22.90;46.40
40085;DHT22;25786;51.504;7.344;2023-07-22T12:04:57;22.80;46.40
40085;DHT22;25786;51.504;7.344;2023-07-22T12:07:30;22.70;47.40
40085;DHT22;25786;51.504;7.344;2023-07-22T12:09:57;23.00;46.90
40085;DHT22;25786;51.504;7.344;2023-07-22T12:15:23;23.10;45.40
40085;DHT22;25786;51.504;7.344;2023-07-22T12:17:56;23.00;46.40
40085;DHT22;25786;51.504;7.344;2023-07-22T12:20:26;23.00;46.70
40085;DHT22;25786;51.504;7.344;2023-07-22T12:22:52;23.00;46.50
40085;DHT22;25786;51.504;7.344;2023-07-22T12:25:17;23.10;46.90
40085;DHT22;25786;51.504;7.344;2023-07-22T12:27:43;23.10;46.20
40085;DHT22;25786;51.504;7.344;2023-07-22T12:30:09;23.30;45.60
40085;DHT22;25786;51.504;7.344;2023-07-22T12:32:34;23.10;45.40
40085;DHT22;25786;51.504;7.344;2023-07-22T12:35:00;23.10;44.70
40085;DHT22;25786;51.504;7.344;2023-07-22T12:37:25;23.10;46.20
40085;DHT22;25786;51.504;7.344;2023-07-22T12:39:51;23.10;46.20
40085;DHT22;25786;51.504;7.344;2023-07-22T12:42:16;23.00;46.20
40085;DHT22;25786;51.504;7.344;2023-07-22T12:44:42;23.00;46.00
40085;DHT22;25786;51.504;7.344;2023-07-22T12:47:07;23.00;45.50
40085;DHT22;25786;51.504;7.344;2023-07-22T12:49:33;23.10;45.70
40085;DHT22;25786;51.504;7.344;2023-07-22T12:51:59;23.00;44.40
40085;DHT22;25786;51.504;7.344;2023-07-22T12:54:29;23.00;45.60
40085;DHT22;25786;51.504;7.344;2023-07-22T12:56:54;23.10;44.70
40085;DHT22;25786;51.504;7.344;2023-07-22T12:59:20;23.30;44.50
40085;DHT22;25786;51.504;7.344;2023-07-22T13:01:45;23.30;43.70
40085;DHT22;25786;51.504;7.344;2023-07-22T13:04:11;23.40;43.10
40085;DHT22;25786;51.504;7.344;2023-07-22T13:06:36;23.60;42.80
40085;DHT22;25786;51.504;7.344;2023-07-22T13:09:03;23.60;42.20
40085;DHT22;25786;51.504;7.344;2023-07-22T13:11:28;23.60;42.00
40085;DHT22;25786;51.504;7.344;2023-07-22T13:13:54;23.70;42.30
40085;DHT22;25786;51.504;7.344;2023-07-22T13:16:19;23.70;42.20
40085;DHT22;25786;51.504;7.344;2023-07-22T13:18:45;23.80;43.00
40085;DHT22;25786;51.504;7.344;2023-07-22T13:21:10;24.00;42.80
40085;DHT22;25786;51.504;7.344;2023-07-22T13:23:38;23.90;41.80
40085;DHT22;25786;51.504;7.344;2023-07-22T13:26:04;23.80;42.80
40085;DHT22;25786;51.504;7.344;2023-07-22T13:28:29;23.50;42.60
40085;DHT22;25786;51.504;7.344;2023-07-22T13:30:55;23.50;43.60
40085;DHT22;25786;51.504;7.344;2023-07-22T13:33:20;23.40;43.20
40085;DHT22;25786;51.504;7.344;2023-07-22T13:35:45;23.30;44.40
40085;DHT22;25786;51.504;7.344;2023-07-22T13:38:11;23.50;43.80
40085;DHT22;25786;51.504;7.344;2023-07-22T13:40:36;23.70;44.30
40085;DHT22;25786;51.504;7.344;2023-07-22T13:43:02;23.70;43.40
40085;DHT22;25786;51.504;7.344;2023-07-22T13:45:27;23.60;43.50
40085;DHT22;25786;51.504;7.344;2023-07-22T13:47:53;23.60;44.50
40085;DHT22;25786;51.504;7.344;2023-07-22T13:50:18;23.60;44.50
40085;DHT22;25786;51.504;7.344;2023-07-22T13:52:44;23.60;44.20
40085;DHT22;25786;51.504;7.344;2023-07-22T13:55:09;23.60;44.90
40085;DHT22;25786;51.504;7.344;2023-07-22T13:57:35;23.50;43.30
40085;DHT22;25786;51.504;7.344;2023-07-22T14:00:01;23.60;44.40
40085;DHT22;25786;51.504;7.344;2023-07-22T14:02:27;23.60;43.00
40085;DHT22;25786;51.504;7.344;2023-07-22T14:04:52;23.60;43.50
40085;DHT22;25786;51.504;7.344;2023-07-22T14:07:18;23.70;44.10
40085;DHT22;25786;51.504;7.344;2023-07-22T14:09:43;23.80;44.00
40085;DHT22;25786;51.504;7.344;2023-07-22T14:12:09;23.90;42.20
40085;DHT22;25786;51.504;7.344;2023-07-22T14:14:34;23.90;42.40
40085;DHT22;25786;51.504;7.344;2023-07-22T14:17:00;23.90;43.00
40085;DHT22;25786;51.504;7.344;2023-07-22T14:19:25;23.80;42.70
40085;DHT22;25786;51.504;7.344;2023-07-22T14:21:51;23.80;42.50
40085;DHT22;25786;51.504;7.344;2023-07-22T14:24:16;23.80;43.50
40085;DHT22;25786;51.504;7.344;2023-07-22T14:26:42;23.90;42.70
40085;DHT22;25786;51.504;7.344;2023-07-22T14:29:07;24.00;43.40
40085;DHT22;25786;51.504;7.344;2023-07-22T14:31:33;23.90;42.30
40085;DHT22;25786;51.504;7.344;2023-07-22T14:33:58;23.90;43.40
40085;DHT22;25786;51.504;7.344;2023-07-22T14:36:24;23.90;43.50
40085;DHT22;25786;51.504;7.344;2023-07-22T14:38:49;23.90;42.20
40085;DHT22;25786;51.504;7.344;2023-07-22T14:41:15;24.00;40.90
40085;DHT22;25786;51.504;7.344;2023-07-22T14:43:40;24.00;42.20
40085;DHT22;25786;51.504;7.344;2023-07-22T14:46:06;24.10;41.00
40085;DHT22;25786;51.504;7.344;2023-07-22T14:48:31;24.20;40.50
40085;DHT22;25786;51.504;7.344;2023-07-22T14:50:57;24.20;40.00
40085;DHT22;25786;51.504;7.344;2023-07-22T14:53:22;24.20;39.00
40085;DHT22;25786;51.504;7.344;2023-07-22T14:55:48;24.20;41.00
40085;DHT22;25786;51.504;7.344;2023-07-22T14:58:13;24.30;40.50
40085;DHT22;25786;51.504;7.344;2023-07-22T15:00:39;24.60;39.60
40085;DHT22;25786;51.504;7.344;2023-07-22T15:03:04;24.80;38.40
40085;DHT22;25786;51.504;7.344;2023-07-22T15:05:30;24.80;37.90
40085;DHT22;25786;51.504;7.344;2023-07-22T15:07:55;24.90;37.80
40085;DHT22;25786;51.504;7.344;2023-07-22T15:10:21;24.90;37.60
40085;DHT22;25786;51.504;7.344;2023-07-22T15:12:46;24.80;37.00
40085;DHT22;25786;51.504;7.344;2023-07-22T15:15:12;24.80;37.30
40085;DHT22;25786;51.504;7.344;2023-07-22T15:17:37;24.90;37.80
40085;DHT22;25786;51.504;7.344;2023-07-22T15:20:03;24.80;37.30
40085;DHT22;25786;51.504;7.344;2023-07-22T15:22:28;24.60;37.90
40085;DHT22;25786;51.504;7.344;2023-07-22T15:24:54;24.50;38.90
40085;DHT22;25786;51.504;7.344;2023-07-22T15:27:29;24.30;38.20
40085;DHT22;25786;51.504;7.344;2023-07-22T15:30:14;24.20;39.20
40085;DHT22;25786;51.504;7.344;2023-07-22T15:32:51;24.20;39.90
40085;DHT22;25786;51.504;7.344;2023-07-22T15:35:27;24.40;39.10